Time;durP1;ratioP1;P1;durP2;ratioP2;P2;SDS_P1;SDS_P2;PMS_P1;PMS_P2;Temp;Humidity;BMP_temperature;BMP_pressure;BME280_temperature;BME280_humidity;BME280_pressure;Samples;Min_cycle;Max_cycle;Signal;HPM_P1;HPM_P2
2022/08/31 00:05:05;;;;;;;1.67;0.20;;;19.20;99.90;;;;;;5073464;28;20192;-72
2022/08/31 00:07:36;;;;;;;0.85;0.28;;;19.20;99.90;;;;;;5073179;28;20192;-72
2022/08/31 00:10:13;;;;;;;0.90;0.20;;;19.30;99.90;;;;;;5073366;28;20195;-72
2022/08/31 00:12:45;;;;;;;1.80;0.82;;;19.30;99.90;;;;;;5073103;28;20236;-72
2022/08/31 00:15:19;;;;;;;1.23;0.40;;;19.50;99.90;;;;;;5073273;28;20189;-72
2022/08/31 00:17:51;;;;;;;4.65;1.02;;;19.70;99.90;;;;;;5073222;28;20216;-73
2022/08/31 00:20:23;;;;;;;1.80;0.30;;;19.80;99.90;;;;;;5073148;28;20629;-72
2022/08/31 00:22:54;;;;;;;0.55;0.30;;;19.90;99.90;;;;;;5073174;28;20189;-73
2022/08/31 00:25:25;;;;;;;1.33;0.32;;;20.00;99.90;;;;;;5072989;28;20220;-71
2022/08/31 00:27:56;;;;;;;2.42;0.40;;;20.10;99.90;;;;;;5073080;28;20193;-72
2022/08/31 00:30:29;;;;;;;1.77;0.40;;;20.20;99.90;;;;;;5073037;28;20193;-72
2022/08/31 00:33:01;;;;;;;0.82;0.20;;;20.00;99.90;;;;;;5073069;28;20193;-72
2022/08/31 00:35:34;;;;;;;2.75;0.50;;;19.90;99.90;;;;;;5073059;28;20200;-72
2022/08/31 00:38:06;;;;;;;1.13;0.25;;;20.00;99.90;;;;;;5073359;28;20216;-72
2022/08/31 00:40:38;;;;;;;1.48;0.30;;;20.00;99.90;;;;;;5072816;28;20196;-73
2022/08/31 00:43:09;;;;;;;2.15;0.52;;;20.10;99.90;;;;;;5072617;28;20191;-72
2022/08/31 00:45:41;;;;;;;1.80;0.40;;;20.20;99.90;;;;;;5072138;28;20199;-73
2022/08/31 00:48:12;;;;;;;2.22;0.40;;;20.20;99.90;;;;;;5072298;28;20645;-72
2022/08/31 00:50:43;;;;;;;1.02;0.35;;;20.20;99.90;;;;;;5071932;28;20185;-71
2022/08/31 00:53:13;;;;;;;1.50;0.38;;;20.40;99.90;;;;;;5072742;28;20189;-72
2022/08/31 00:55:44;;;;;;;1.35;0.45;;;20.20;99.90;;;;;;5073991;28;20665;-72
2022/08/31 00:58:16;;;;;;;3.35;0.50;;;20.40;99.90;;;;;;5076398;28;20544;-72
2022/08/31 01:00:48;;;;;;;0.65;0.20;;;20.40;99.90;;;;;;5068421;28;20189;-72
2022/08/31 01:03:20;;;;;;;0.63;0.20;;;20.20;99.90;;;;;;5076357;28;20193;-73
2022/08/31 01:05:51;;;;;;;2.83;0.30;;;20.30;99.90;;;;;;5075642;28;20235;-72
2022/08/31 01:08:22;;;;;;;0.85;0.30;;;20.40;99.90;;;;;;5076249;28;20655;-73
2022/08/31 01:10:53;;;;;;;1.50;0.30;;;20.70;99.90;;;;;;5076172;28;20201;-72
2022/08/31 01:13:24;;;;;;;4.07;0.45;;;20.70;99.90;;;;;;5075564;28;20224;-72
2022/08/31 01:16:02;;;;;;;2.13;0.60;;;20.70;99.90;;;;;;5075946;28;20190;-72
2022/08/31 01:18:34;;;;;;;2.03;0.50;;;20.70;99.90;;;;;;5065877;28;20217;-72
2022/08/31 01:21:18;;;;;;;2.65;0.40;;;20.80;99.90;;;;;;5076104;28;20222;-72
2022/08/31 01:23:51;;;;;;;2.85;0.47;;;20.80;99.90;;;;;;5074303;28;20185;-72
2022/08/31 01:26:24;;;;;;;2.13;0.50;;;20.80;99.90;;;;;;5075409;28;20192;-72
2022/08/31 01:28:58;;;;;;;2.00;0.40;;;20.80;99.90;;;;;;5075407;28;20191;-72
2022/08/31 01:31:33;;;;;;;2.15;0.40;;;20.70;99.90;;;;;;5075675;28;20584;-72
2022/08/31 01:34:03;;;;;;;0.85;0.35;;;20.50;99.90;;;;;;5075275;28;20185;-72
2022/08/31 01:36:35;;;;;;;2.03;0.40;;;20.20;99.90;;;;;;5075319;28;20189;-72
2022/08/31 01:39:10;;;;;;;3.35;0.40;;;20.00;99.90;;;;;;5075597;28;20223;-72
2022/08/31 01:41:42;;;;;;;4.85;0.50;;;19.70;99.90;;;;;;5075057;28;20203;-72
2022/08/31 01:44:14;;;;;;;6.10;1.30;;;19.50;99.90;;;;;;5075610;28;20197;-72
2022/08/31 01:46:45;;;;;;;2.65;0.95;;;19.40;99.90;;;;;;5075321;28;20232;-72
2022/08/31 01:49:17;;;;;;;2.70;0.50;;;19.30;99.90;;;;;;5075401;28;20194;-71
2022/08/31 01:51:50;;;;;;;2.40;0.45;;;19.30;99.90;;;;;;5074949;28;20196;-72
2022/08/31 01:54:25;;;;;;;5.90;0.80;;;19.20;99.90;;;;;;5075360;28;20196;-71
2022/08/31 01:56:56;;;;;;;1.67;0.40;;;19.00;99.90;;;;;;5074893;28;20275;-71
2022/08/31 01:59:27;;;;;;;0.40;0.30;;;19.00;99.90;;;;;;5072914;28;20224;-72
2022/08/31 02:01:58;;;;;;;2.60;0.60;;;19.30;99.90;;;;;;5075693;28;20279;-72
2022/08/31 02:04:30;;;;;;;3.90;0.70;;;19.60;99.90;;;;;;5075171;28;20666;-73
2022/08/31 02:07:02;;;;;;;2.35;0.50;;;19.90;99.90;;;;;;5074979;28;20192;-72
2022/08/31 02:09:35;;;;;;;3.05;0.50;;;20.10;99.90;;;;;;5075008;28;20648;-72
2022/08/31 02:12:06;;;;;;;3.17;0.70;;;20.00;99.90;;;;;;5074460;28;20180;-72
2022/08/31 02:14:37;;;;;;;3.45;0.45;;;20.10;99.90;;;;;;5074743;28;20196;-73
2022/08/31 02:17:07;;;;;;;5.75;0.57;;;20.20;99.90;;;;;;5074541;28;20185;-72
2022/08/31 02:19:38;;;;;;;2.67;0.68;;;20.20;99.90;;;;;;5074613;28;20216;-72
2022/08/31 02:22:09;;;;;;;2.83;0.50;;;20.40;99.90;;;;;;5075082;28;20196;-71
2022/08/31 02:24:42;;;;;;;2.90;0.70;;;20.50;99.90;;;;;;5073983;28;20225;-72
2022/08/31 02:27:12;;;;;;;4.63;0.80;;;20.60;99.90;;;;;;5074804;28;20193;-72
2022/08/31 02:29:43;;;;;;;3.22;0.70;;;20.70;99.90;;;;;;5074205;28;20193;-73
2022/08/31 02:32:14;;;;;;;6.80;0.98;;;20.80;99.90;;;;;;5074129;28;20276;-70
2022/08/31 02:34:45;;;;;;;1.95;0.57;;;20.80;99.90;;;;;;5073992;28;20193;-71
2022/08/31 02:37:15;;;;;;;2.10;0.50;;;20.70;99.90;;;;;;5074647;28;20200;-72
2022/08/31 02:39:48;;;;;;;3.60;0.88;;;20.80;99.90;;;;;;5074077;28;20215;-72
2022/08/31 02:42:19;;;;;;;3.10;0.70;;;20.70;99.90;;;;;;5074469;28;20185;-72
2022/08/31 02:44:49;;;;;;;4.20;0.60;;;20.80;99.90;;;;;;5074246;28;20181;-71
2022/08/31 02:47:20;;;;;;;1.58;0.60;;;20.60;99.90;;;;;;5074397;28;20193;-72
2022/08/31 02:49:51;;;;;;;4.28;0.80;;;20.40;99.90;;;;;;5073571;28;20204;-69
2022/08/31 02:52:22;;;;;;;5.80;1.10;;;20.30;99.90;;;;;;5074001;28;20191;-71
2022/08/31 02:54:55;;;;;;;8.50;1.20;;;20.00;99.90;;;;;;5073042;28;20185;-70
2022/08/31 02:57:25;;;;;;;8.43;1.52;;;19.80;99.90;;;;;;5071228;28;20189;-70
2022/08/31 02:59:56;;;;;;;4.75;1.40;;;19.80;99.90;;;;;;5073840;28;20219;-70
2022/08/31 03:02:27;;;;;;;5.22;1.15;;;19.80;99.90;;;;;;5071361;28;20185;-70
2022/08/31 03:04:58;;;;;;;4.90;1.42;;;20.10;99.90;;;;;;5074123;28;20548;-70
2022/08/31 03:07:32;;;;;;;5.03;1.10;;;20.20;99.90;;;;;;5071366;28;20195;-70
2022/08/31 03:10:05;;;;;;;4.63;1.25;;;20.30;99.90;;;;;;5073844;28;20193;-71
2022/08/31 03:12:36;;;;;;;7.68;1.30;;;20.50;99.90;;;;;;5073315;28;20235;-71
2022/08/31 03:15:08;;;;;;;5.47;1.10;;;20.30;99.90;;;;;;5073391;28;20195;-70
2022/08/31 03:17:39;;;;;;;7.93;1.25;;;20.20;99.90;;;;;;5073061;28;20189;-70
2022/08/31 03:20:11;;;;;;;5.88;1.40;;;19.80;99.90;;;;;;5073476;28;20181;-71
2022/08/31 03:22:42;;;;;;;7.07;1.45;;;19.50;99.90;;;;;;5073205;28;20181;-71
2022/08/31 03:25:16;;;;;;;6.60;1.50;;;19.50;99.90;;;;;;5072998;28;20216;-70
2022/08/31 03:27:47;;;;;;;6.38;1.60;;;19.30;99.90;;;;;;5072965;28;20225;-70
2022/08/31 03:30:20;;;;;;;6.28;1.63;;;19.20;99.90;;;;;;5073152;28;20193;-70
2022/08/31 03:32:52;;;;;;;9.20;1.70;;;19.50;99.90;;;;;;5072914;28;20181;-70
2022/08/31 03:35:23;;;;;;;7.22;1.50;;;19.40;99.90;;;;;;5073006;28;20186;-70
2022/08/31 03:37:54;;;;;;;5.30;1.20;;;19.30;99.90;;;;;;5072797;28;20557;-70
2022/08/31 03:40:27;;;;;;;3.70;1.05;;;19.20;99.90;;;;;;5072945;28;20181;-70
2022/08/31 03:42:58;;;;;;;2.28;0.80;;;19.20;99.90;;;;;;5073346;28;20193;-70
2022/08/31 03:45:30;;;;;;;3.25;1.20;;;19.30;99.90;;;;;;5070872;28;20558;-70
2022/08/31 03:48:03;;;;;;;3.08;1.17;;;19.50;99.90;;;;;;5073540;28;20193;-71
2022/08/31 03:50:33;;;;;;;3.28;1.20;;;19.50;99.90;;;;;;5073621;28;20661;-70
2022/08/31 03:53:05;;;;;;;3.45;1.20;;;19.40;99.90;;;;;;5073326;28;20539;-70
2022/08/31 03:55:40;;;;;;;4.75;1.23;;;19.50;99.90;;;;;;5073371;28;20523;-70
2022/08/31 03:58:11;;;;;;;4.07;1.20;;;19.50;99.90;;;;;;5073269;28;20185;-70
2022/08/31 04:00:44;;;;;;;3.67;1.40;;;19.40;99.90;;;;;;5073415;28;20185;-70
2022/08/31 04:03:15;;;;;;;5.53;1.30;;;19.40;99.90;;;;;;5073430;28;20189;-70
2022/08/31 04:05:46;;;;;;;6.07;1.73;;;19.40;99.90;;;;;;5073345;28;20189;-70
2022/08/31 04:08:18;;;;;;;7.20;1.70;;;19.40;99.90;;;;;;5073622;28;20535;-70
2022/08/31 04:10:52;;;;;;;11.55;1.83;;;19.30;99.90;;;;;;5073217;28;20193;-70
2022/08/31 04:13:24;;;;;;;7.50;1.92;;;19.30;99.90;;;;;;5052917;28;20315;-70
2022/08/31 04:15:55;;;;;;;4.63;1.15;;;19.40;99.90;;;;;;5053302;28;20193;-70
2022/08/31 04:18:26;;;;;;;5.57;1.50;;;19.30;99.90;;;;;;5053192;28;20214;-70
2022/08/31 04:20:56;;;;;;;4.28;1.20;;;19.20;99.90;;;;;;5053552;28;20200;-70
2022/08/31 04:23:28;;;;;;;3.78;1.25;;;19.10;99.90;;;;;;5053284;28;20198;-72
2022/08/31 04:26:01;;;;;;;4.95;1.25;;;18.80;99.90;;;;;;5072520;28;20624;-72
2022/08/31 04:28:32;;;;;;;4.32;1.25;;;18.50;99.90;;;;;;5073018;28;20567;-72
2022/08/31 04:31:07;;;;;;;5.70;1.55;;;18.40;99.90;;;;;;5076750;28;20644;-73
2022/08/31 04:33:39;;;;;;;5.72;1.25;;;18.50;99.90;;;;;;5077326;28;20199;-72
2022/08/31 04:36:11;;;;;;;6.85;1.40;;;18.20;99.90;;;;;;5077426;28;20193;-72
2022/08/31 04:38:44;;;;;;;6.63;1.60;;;18.10;99.90;;;;;;5077083;28;20683;-72
2022/08/31 04:41:19;;;;;;;9.48;1.50;;;18.00;99.90;;;;;;5076927;28;20193;-72
2022/08/31 04:43:53;;;;;;;4.85;1.30;;;18.10;99.90;;;;;;5077198;28;20188;-72
2022/08/31 04:46:24;;;;;;;4.47;1.58;;;18.10;99.90;;;;;;5077038;28;20188;-73
2022/08/31 04:48:55;;;;;;;6.00;1.58;;;18.20;99.90;;;;;;5077283;28;20189;-72
2022/08/31 04:51:29;;;;;;;5.47;1.05;;;18.10;99.90;;;;;;5077170;28;20211;-72
2022/08/31 04:54:00;;;;;;;3.97;1.15;;;18.20;99.90;;;;;;5077142;28;20189;-73
2022/08/31 04:56:35;;;;;;;3.00;1.20;;;18.10;99.90;;;;;;5076723;28;20193;-72
2022/08/31 04:59:07;;;;;;;4.35;1.10;;;18.00;99.90;;;;;;5076742;28;20216;-72
2022/08/31 05:01:40;;;;;;;3.25;1.05;;;18.00;99.90;;;;;;5076693;28;20556;-72
2022/08/31 05:04:12;;;;;;;4.65;1.17;;;18.00;99.90;;;;;;5076609;28;20199;-72
2022/08/31 05:06:45;;;;;;;8.50;1.35;;;17.90;99.90;;;;;;5076632;28;20192;-71
2022/08/31 05:09:18;;;;;;;5.95;1.50;;;17.70;99.90;;;;;;5076610;28;20634;-72
2022/08/31 05:11:51;;;;;;;6.32;1.50;;;17.80;99.90;;;;;;5076131;28;20197;-72
2022/08/31 05:14:22;;;;;;;6.50;1.58;;;17.90;99.90;;;;;;5076305;28;20242;-72
2022/08/31 05:16:54;;;;;;;5.40;1.70;;;18.00;99.90;;;;;;5076456;28;20196;-72
2022/08/31 05:19:24;;;;;;;5.47;1.33;;;17.80;99.90;;;;;;5076500;28;20219;-72
2022/08/31 05:21:55;;;;;;;7.45;1.85;;;17.80;99.90;;;;;;5076310;28;20199;-71
2022/08/31 05:24:26;;;;;;;7.10;1.52;;;17.80;99.90;;;;;;5075907;28;20213;-71
2022/08/31 05:26:59;;;;;;;7.13;1.80;;;17.90;99.90;;;;;;5076221;28;20196;-72
2022/08/31 05:29:30;;;;;;;7.93;1.75;;;18.00;99.90;;;;;;5076061;28;20196;-70
2022/08/31 05:32:01;;;;;;;5.95;1.50;;;17.90;99.90;;;;;;5055682;28;20197;-72
2022/08/31 05:34:32;;;;;;;5.45;1.52;;;17.90;99.90;;;;;;5056064;28;20193;-70
2022/08/31 05:37:02;;;;;;;7.85;1.83;;;17.80;99.90;;;;;;5056193;28;20565;-72
2022/08/31 05:39:33;;;;;;;5.68;1.40;;;17.70;99.90;;;;;;5055685;28;20213;-72
2022/08/31 05:42:06;;;;;;;4.53;1.33;;;17.80;99.90;;;;;;5058073;28;20193;-73
2022/08/31 05:44:37;;;;;;;6.75;1.20;;;17.80;99.90;;;;;;5075994;28;20189;-72
2022/08/31 05:47:09;;;;;;;7.35;1.63;;;17.80;99.90;;;;;;5075835;28;20197;-73
2022/08/31 05:49:43;;;;;;;4.63;1.38;;;17.80;99.90;;;;;;5075867;28;20185;-73
2022/08/31 05:52:14;;;;;;;4.78;1.20;;;17.60;99.90;;;;;;5076069;28;20239;-73
2022/08/31 05:54:45;;;;;;;7.30;1.30;;;17.50;99.90;;;;;;5075457;28;20188;-72
2022/08/31 05:57:18;;;;;;;8.15;1.73;;;17.40;99.90;;;;;;5075614;28;20193;-72
2022/08/31 05:59:49;;;;;;;10.13;1.90;;;17.30;99.90;;;;;;5075664;28;20221;-73
2022/08/31 06:02:19;;;;;;;5.95;1.60;;;17.30;99.90;;;;;;5076028;28;20263;-72
2022/08/31 06:04:50;;;;;;;11.70;1.48;;;17.30;99.90;;;;;;5075664;28;20662;-72
2022/08/31 06:07:21;;;;;;;8.57;1.60;;;17.30;99.90;;;;;;5075609;28;20189;-72
2022/08/31 06:09:52;;;;;;;5.78;1.48;;;17.40;99.90;;;;;;5075313;28;20197;-72
2022/08/31 06:12:25;;;;;;;8.27;1.52;;;17.30;99.90;;;;;;5075541;28;20240;-73
2022/08/31 06:14:56;;;;;;;5.15;1.55;;;17.30;99.90;;;;;;5075460;28;20250;-72
2022/08/31 06:17:27;;;;;;;7.93;1.70;;;17.30;99.90;;;;;;5075401;28;20197;-72
2022/08/31 06:19:58;;;;;;;5.53;1.13;;;17.30;99.90;;;;;;5075178;28;20213;-72
2022/08/31 06:22:30;;;;;;;7.75;1.30;;;17.20;99.90;;;;;;5075003;28;20653;-72
2022/08/31 06:25:00;;;;;;;6.75;1.58;;;17.20;99.90;;;;;;5074745;28;20228;-71
2022/08/31 06:27:33;;;;;;;9.20;1.70;;;17.20;99.90;;;;;;5075157;28;20636;-69
2022/08/31 06:30:06;;;;;;;7.07;1.50;;;17.20;99.90;;;;;;5075105;28;20530;-70
2022/08/31 06:32:37;;;;;;;7.85;1.40;;;17.20;99.90;;;;;;5075052;28;20594;-69
2022/08/31 06:35:08;;;;;;;7.00;1.50;;;17.20;99.90;;;;;;5075109;28;20193;-69
2022/08/31 06:37:39;;;;;;;9.88;1.70;;;17.10;99.90;;;;;;5074783;28;20645;-70
2022/08/31 06:40:10;;;;;;;5.78;1.42;;;17.10;99.90;;;;;;5075119;28;20216;-69
2022/08/31 06:42:43;;;;;;;8.55;1.50;;;17.10;99.90;;;;;;5074877;28;20652;-70
2022/08/31 06:45:14;;;;;;;5.68;1.63;;;17.00;99.90;;;;;;5074673;28;20189;-70
2022/08/31 06:47:45;;;;;;;5.50;1.27;;;17.00;99.90;;;;;;5074728;28;20193;-70
2022/08/31 06:50:16;;;;;;;7.85;1.77;;;17.00;99.90;;;;;;5074551;28;20195;-71
2022/08/31 06:52:47;;;;;;;6.65;1.23;;;17.00;99.90;;;;;;5073536;28;20632;-71
2022/08/31 06:55:18;;;;;;;6.22;1.50;;;16.90;99.90;;;;;;5074580;28;20189;-70
2022/08/31 06:57:50;;;;;;;11.68;1.48;;;16.90;99.90;;;;;;5074561;28;20667;-70
2022/08/31 07:00:21;;;;;;;7.32;1.73;;;16.90;99.90;;;;;;5074386;28;20213;-70
2022/08/31 07:02:52;;;;;;;6.60;1.52;;;16.90;99.90;;;;;;5074087;28;20529;-70
2022/08/31 07:05:23;;;;;;;7.15;1.55;;;16.90;99.90;;;;;;5074254;28;20192;-70
2022/08/31 07:07:53;;;;;;;6.35;1.30;;;16.90;99.90;;;;;;5074003;28;20193;-69
2022/08/31 07:10:24;;;;;;;6.20;1.40;;;16.90;99.90;;;;;;5074185;28;20195;-71
2022/08/31 07:12:57;;;;;;;5.00;1.10;;;16.90;99.90;;;;;;5074106;28;20229;-69
2022/08/31 07:15:27;;;;;;;3.28;0.82;;;16.90;99.90;;;;;;5074146;28;20193;-70
2022/08/31 07:17:58;;;;;;;3.22;0.93;;;16.80;99.90;;;;;;5074195;28;20633;-69
2022/08/31 07:20:29;;;;;;;2.40;0.80;;;16.80;99.90;;;;;;5073906;28;20219;-69
2022/08/31 07:23:00;;;;;;;4.50;1.05;;;16.80;99.90;;;;;;5074108;28;20199;-70
2022/08/31 07:25:30;;;;;;;3.25;0.95;;;16.70;99.90;;;;;;5073475;28;20311;-70
2022/08/31 07:28:04;;;;;;;5.28;0.93;;;16.70;99.90;;;;;;5073965;28;20184;-69
2022/08/31 07:30:40;;;;;;;4.32;0.80;;;16.70;99.90;;;;;;5073758;28;20247;-70
2022/08/31 07:33:15;;;;;;;3.28;0.82;;;16.60;99.90;;;;;;5074239;28;20189;-69
2022/08/31 07:35:46;;;;;;;5.53;0.80;;;16.60;99.90;;;;;;5073586;28;20191;-70
2022/08/31 07:43:54;;;;;;;3.30;0.93;;;16.40;99.90;;;;;;5073830;28;20275;-70
2022/08/31 07:46:28;;;;;;;2.17;0.93;;;16.40;99.90;;;;;;5073712;28;20709;-70
2022/08/31 07:48:59;;;;;;;3.35;0.80;;;16.30;99.90;;;;;;5073938;28;20291;-70
2022/08/31 07:51:30;;;;;;;4.05;0.75;;;16.30;99.90;;;;;;5073433;28;20193;-69
2022/08/31 07:54:04;;;;;;;3.22;0.90;;;16.30;99.90;;;;;;5073522;28;20188;-71
2022/08/31 07:56:37;;;;;;;4.10;1.00;;;16.30;99.90;;;;;;5073673;28;20199;-70
2022/08/31 07:59:09;;;;;;;4.05;1.00;;;16.30;99.90;;;;;;5073558;28;20552;-70
2022/08/31 08:01:42;;;;;;;3.80;1.00;;;16.30;99.90;;;;;;5073487;28;20284;-70
2022/08/31 08:04:14;;;;;;;3.70;1.10;;;16.30;99.90;;;;;;5073030;28;20189;-69
2022/08/31 08:06:45;;;;;;;5.38;0.93;;;16.30;99.90;;;;;;5073517;28;20189;-70
2022/08/31 08:09:15;;;;;;;5.57;0.98;;;16.30;99.90;;;;;;5073427;28;20195;-69
2022/08/31 08:11:51;;;;;;;3.95;0.95;;;16.30;99.90;;;;;;5073289;28;20685;-70
2022/08/31 08:14:24;;;;;;;7.65;1.20;;;16.30;99.90;;;;;;5073259;28;20601;-70
2022/08/31 08:16:58;;;;;;;2.13;0.88;;;16.30;99.90;;;;;;5073472;28;20191;-69
2022/08/31 08:19:28;;;;;;;2.42;0.90;;;16.30;99.90;;;;;;5073080;28;20189;-70
2022/08/31 08:21:59;;;;;;;3.88;1.02;;;16.30;99.90;;;;;;5073337;28;20189;-69
2022/08/31 08:24:30;;;;;;;2.47;0.90;;;16.30;99.90;;;;;;5072915;28;20599;-69
2022/08/31 08:27:01;;;;;;;3.33;0.98;;;16.30;99.90;;;;;;5073010;28;20667;-70
2022/08/31 08:29:33;;;;;;;5.50;1.50;;;16.30;99.90;;;;;;5073201;28;20189;-70
2022/08/31 08:32:04;;;;;;;4.43;1.80;;;16.30;99.90;;;;;;5073108;28;20185;-69
2022/08/31 08:34:35;;;;;;;6.85;1.98;;;16.20;99.90;;;;;;5072967;28;20189;-69
2022/08/31 08:37:08;;;;;;;5.70;2.42;;;16.20;99.90;;;;;;5073153;28;20196;-70
2022/08/31 08:39:39;;;;;;;6.88;1.70;;;16.20;99.90;;;;;;5073110;28;20195;-70
2022/08/31 08:42:12;;;;;;;9.93;1.85;;;16.20;99.90;;;;;;5072964;28;20193;-70
2022/08/31 08:44:45;;;;;;;7.47;1.70;;;16.20;99.90;;;;;;5073033;28;20193;-69
2022/08/31 08:47:19;;;;;;;6.75;1.58;;;16.20;99.90;;;;;;5073102;28;20207;-69
2022/08/31 08:49:52;;;;;;;9.93;1.80;;;16.20;99.90;;;;;;5072878;28;20728;-70
2022/08/31 08:52:25;;;;;;;6.28;1.55;;;16.20;99.90;;;;;;5072978;28;20195;-70
2022/08/31 08:54:58;;;;;;;7.47;1.75;;;16.10;99.90;;;;;;5072949;28;20192;-69
2022/08/31 08:57:31;;;;;;;10.48;1.70;;;16.10;99.90;;;;;;5072965;28;20197;-69
2022/08/31 09:00:09;;;;;;;7.57;1.83;;;16.10;99.90;;;;;;5072805;28;20217;-69
2022/08/31 09:02:47;;;;;;;8.75;1.88;;;16.10;99.90;;;;;;5072758;28;20215;-70
2022/08/31 09:05:41;;;;;;;6.72;1.45;;;16.10;99.90;;;;;;5072833;28;20196;-69
2022/08/31 09:08:33;;;;;;;6.75;1.70;;;16.10;99.90;;;;;;5072872;28;20200;-69
2022/08/31 09:11:16;;;;;;;7.20;1.67;;;16.10;99.90;;;;;;5072622;28;20195;-70
2022/08/31 09:14:05;;;;;;;11.10;1.98;;;16.00;99.90;;;;;;5072530;28;20229;-69
2022/08/31 09:16:46;;;;;;;6.53;1.45;;;16.00;99.90;;;;;;5073733;28;20272;-69
2022/08/31 09:19:19;;;;;;;8.90;1.90;;;16.00;99.90;;;;;;5076568;28;20185;-69
2022/08/31 09:21:52;;;;;;;8.38;1.73;;;16.00;99.90;;;;;;5076292;28;20231;-69
2022/08/31 09:24:26;;;;;;;7.70;1.73;;;15.90;99.90;;;;;;5076016;28;20720;-69
2022/08/31 09:27:16;;;;;;;6.57;1.58;;;15.90;99.90;;;;;;5076213;28;20192;-69
2022/08/31 09:29:49;;;;;;;12.73;1.80;;;15.90;99.90;;;;;;5076262;28;20272;-69
2022/08/31 09:32:26;;;;;;;8.48;1.90;;;15.90;99.90;;;;;;5076013;28;20199;-70
2022/08/31 09:35:00;;;;;;;8.40;1.80;;;15.90;99.90;;;;;;5076104;28;20568;-70
2022/08/31 09:37:39;;;;;;;9.82;1.83;;;15.90;99.90;;;;;;5076157;28;20279;-72
2022/08/31 09:40:21;;;;;;;8.50;2.00;;;15.90;99.90;;;;;;5076350;28;20231;-71
2022/08/31 09:43:06;;;;;;;8.88;1.98;;;15.90;99.90;;;;;;5075956;28;20189;-72
2022/08/31 09:45:37;;;;;;;10.27;1.67;;;15.90;99.90;;;;;;5076037;28;20189;-71
2022/08/31 09:48:11;;;;;;;10.43;2.08;;;15.90;99.90;;;;;;5075929;28;20591;-71
2022/08/31 09:50:45;;;;;;;9.70;1.95;;;15.80;99.90;;;;;;5076260;28;20193;-73
2022/08/31 09:56:12;;;;;;;11.48;2.13;;;15.80;99.90;;;;;;5075929;28;20258;-72
2022/08/31 09:58:45;;;;;;;10.45;2.00;;;15.90;99.90;;;;;;5075733;28;20238;-72
2022/08/31 10:01:26;;;;;;;8.68;1.90;;;15.80;99.90;;;;;;5075364;28;20221;-72
2022/08/31 10:04:17;;;;;;;8.75;1.88;;;15.80;99.90;;;;;;5075423;28;20196;-72
2022/08/31 10:06:54;;;;;;;10.02;1.77;;;15.80;99.90;;;;;;5075369;28;20185;-71
2022/08/31 10:09:36;;;;;;;8.48;1.95;;;15.80;99.90;;;;;;5075109;28;20181;-72
2022/08/31 10:12:13;;;;;;;9.45;1.55;;;15.80;99.90;;;;;;5072098;28;20196;-72
2022/08/31 10:14:50;;;;;;;16.75;1.75;;;15.80;99.90;;;;;;5074942;28;20192;-71
2022/08/31 10:17:28;;;;;;;11.60;2.00;;;15.80;99.90;;;;;;5075128;28;20411;-72
2022/08/31 10:20:08;;;;;;;9.27;1.55;;;15.70;99.90;;;;;;5074847;28;20656;-70
2022/08/31 10:22:42;;;;;;;7.40;1.90;;;15.80;99.90;;;;;;5073811;28;20185;-72
2022/08/31 10:25:29;;;;;;;13.68;2.25;;;15.70;99.90;;;;;;5074278;28;20270;-72
2022/08/31 10:28:10;;;;;;;8.32;1.83;;;15.70;99.90;;;;;;5074768;28;20268;-71
2022/08/31 10:30:47;;;;;;;10.05;1.67;;;15.70;99.90;;;;;;5073338;28;20200;-72
2022/08/31 10:33:22;;;;;;;11.23;2.10;;;15.70;99.90;;;;;;5074892;28;20192;-72
2022/08/31 10:36:01;;;;;;;10.20;1.85;;;15.70;99.90;;;;;;5074584;28;20197;-70
2022/08/31 10:38:37;;;;;;;11.05;2.17;;;15.60;99.90;;;;;;5074453;28;20663;-72
2022/08/31 10:41:15;;;;;;;10.25;2.08;;;15.60;99.90;;;;;;5071974;28;20204;-72
2022/08/31 10:43:52;;;;;;;14.85;2.40;;;15.60;99.90;;;;;;5073742;28;20181;-72
2022/08/31 10:46:23;;;;;;;10.35;2.22;;;15.60;99.90;;;;;;5073904;28;20547;-72
2022/08/31 10:48:54;;;;;;;9.80;1.92;;;15.60;99.90;;;;;;5073662;28;20581;-72
2022/08/31 10:51:34;;;;;;;13.20;1.55;;;15.60;99.90;;;;;;5074056;28;20193;-72
2022/08/31 10:54:20;;;;;;;10.27;1.80;;;15.60;99.90;;;;;;5070981;28;20663;-72
2022/08/31 10:57:01;;;;;;;13.63;2.42;;;15.60;99.90;;;;;;5073897;28;20185;-72
2022/08/31 10:59:39;;;;;;;12.43;1.95;;;15.60;99.90;;;;;;5071907;28;20193;-73
2022/08/31 11:02:37;;;;;;;11.35;1.90;;;15.50;99.90;;;;;;5071706;28;20209;-72
2022/08/31 11:05:34;;;;;;;11.00;2.38;;;15.50;99.90;;;;;;5073783;28;20288;-72
2022/08/31 11:08:36;;;;;;;9.05;1.70;;;15.50;99.90;;;;;;5073990;28;20193;-72
2022/08/31 11:11:09;;;;;;;11.70;2.00;;;15.50;99.90;;;;;;5071270;28;20211;-72
2022/08/31 11:14:01;;;;;;;11.15;2.08;;;15.50;99.90;;;;;;5073307;28;20224;-72
2022/08/31 11:16:47;;;;;;;7.85;1.75;;;15.50;99.90;;;;;;5074037;28;20189;-72
2022/08/31 11:19:37;;;;;;;13.43;1.92;;;15.40;99.90;;;;;;5072274;28;20193;-72
2022/08/31 11:22:36;;;;;;;10.88;2.00;;;15.40;99.90;;;;;;5073649;28;20213;-73
2022/08/31 11:25:36;;;;;;;13.55;2.13;;;15.40;99.90;;;;;;5073296;28;20212;-72
2022/08/31 11:28:12;;;;;;;9.55;1.67;;;15.40;99.90;;;;;;5073488;28;20185;-72
2022/08/31 11:30:48;;;;;;;10.15;1.70;;;15.40;99.90;;;;;;5073320;28;20648;-72
2022/08/31 11:33:26;;;;;;;10.68;2.00;;;15.30;99.90;;;;;;5073189;28;20640;-72
2022/08/31 11:36:09;;;;;;;10.88;2.00;;;15.30;99.90;;;;;;5072992;28;20185;-72
2022/08/31 11:38:51;;;;;;;11.95;2.20;;;15.30;99.90;;;;;;5063734;28;20192;-72
2022/08/31 11:41:45;;;;;;;10.85;2.75;;;15.30;99.90;;;;;;5072936;28;20706;-72
2022/08/31 11:44:50;;;;;;;8.75;2.55;;;15.30;99.90;;;;;;5071655;28;20192;-69
2022/08/31 11:47:36;;;;;;;10.30;2.00;;;15.30;99.90;;;;;;5073337;28;20647;-71
2022/08/31 11:50:26;;;;;;;12.18;2.10;;;15.30;99.90;;;;;;5069887;28;20199;-70
2022/08/31 11:52:58;;;;;;;14.07;1.90;;;15.30;99.90;;;;;;5072954;28;20189;-69
2022/08/31 11:55:46;;;;;;;7.15;1.90;;;15.30;99.90;;;;;;5072887;28;20200;-70
2022/08/31 11:58:33;;;;;;;8.65;1.83;;;15.30;99.90;;;;;;5072737;28;20537;-70
2022/08/31 12:01:35;;;;;;;10.75;1.90;;;15.40;99.90;;;;;;5070279;28;20258;-70
2022/08/31 12:04:05;;;;;;;7.75;1.17;;;15.30;99.90;;;;;;5068478;28;20188;-70
2022/08/31 12:07:09;;;;;;;11.43;1.80;;;15.40;99.90;;;;;;5073006;28;20554;-69
2022/08/31 12:10:11;;;;;;;8.95;1.35;;;15.40;99.90;;;;;;5072111;28;20276;-69
2022/08/31 12:13:06;;;;;;;14.38;1.85;;;15.40;99.90;;;;;;5072509;28;20258;-70
2022/08/31 12:15:59;;;;;;;7.15;1.30;;;15.40;99.90;;;;;;5071320;28;20189;-69
2022/08/31 12:18:50;;;;;;;12.23;1.75;;;15.40;99.90;;;;;;5073072;28;20656;-70
2022/08/31 12:24:29;;;;;;;10.40;1.98;;;15.40;99.90;;;;;;5072632;28;20243;-70
2022/08/31 12:27:16;;;;;;;8.48;1.60;;;15.40;99.90;;;;;;5069137;28;20191;-70
2022/08/31 12:29:48;;;;;;;7.70;1.42;;;15.30;99.90;;;;;;5072377;28;20185;-70
2022/08/31 12:32:40;;;;;;;9.80;2.15;;;15.30;99.90;;;;;;5072601;28;20193;-70
2022/08/31 12:35:18;;;;;;;5.88;1.30;;;15.30;99.90;;;;;;5070901;28;20189;-70
2022/08/31 12:38:01;;;;;;;8.07;1.50;;;15.30;99.90;;;;;;5072432;28;20189;-70
2022/08/31 12:40:34;;;;;;;7.82;1.67;;;15.30;99.90;;;;;;5070457;28;20196;-70
2022/08/31 12:43:10;;;;;;;10.45;1.70;;;15.30;99.90;;;;;;5069334;28;20280;-69
2022/08/31 12:46:09;;;;;;;9.43;1.60;;;15.30;99.90;;;;;;5072114;28;20196;-69
2022/08/31 12:49:07;;;;;;;7.80;2.15;;;15.20;99.90;;;;;;5071559;28;20201;-70
2022/08/31 12:51:45;;;;;;;6.40;1.75;;;15.20;99.90;;;;;;5056603;28;20215;-70
2022/08/31 12:54:43;;;;;;;5.43;1.80;;;15.20;99.90;;;;;;5076404;28;20553;-69
2022/08/31 12:57:28;;;;;;;7.07;1.70;;;15.20;99.90;;;;;;5074480;28;20663;-70
2022/08/31 13:00:08;;;;;;;8.55;1.77;;;15.20;99.90;;;;;;5076366;28;20231;-69
2022/08/31 13:02:46;;;;;;;7.40;1.70;;;15.20;99.90;;;;;;5076568;28;20252;-69
2022/08/31 13:05:25;;;;;;;8.35;1.80;;;15.20;99.90;;;;;;5076130;28;20557;-69
2022/08/31 13:07:56;;;;;;;9.00;1.80;;;15.20;99.90;;;;;;5075613;28;20554;-69
2022/08/31 13:10:35;;;;;;;8.68;1.60;;;15.20;99.90;;;;;;5072699;28;20555;-70
2022/08/31 13:13:10;;;;;;;5.70;1.38;;;15.20;99.90;;;;;;5073204;28;20315;-69
2022/08/31 13:15:44;;;;;;;6.47;1.20;;;15.10;99.90;;;;;;5075974;28;20202;-70
2022/08/31 13:18:16;;;;;;;8.93;1.23;;;15.20;99.90;;;;;;5075692;28;20640;-70
2022/08/31 13:20:49;;;;;;;8.98;1.63;;;15.20;99.90;;;;;;5075543;28;20185;-69
2022/08/31 13:23:29;;;;;;;10.70;1.60;;;15.20;99.90;;;;;;5075395;28;20211;-69
2022/08/31 13:26:03;;;;;;;7.78;1.42;;;15.20;99.90;;;;;;5075932;28;20536;-70
2022/08/31 13:28:34;;;;;;;7.63;1.50;;;15.20;99.90;;;;;;5074023;28;20196;-69
2022/08/31 13:31:07;;;;;;;8.10;1.67;;;15.20;99.90;;;;;;5072995;28;20624;-70
2022/08/31 13:33:40;;;;;;;7.30;1.52;;;15.20;99.90;;;;;;5075207;28;20268;-69
2022/08/31 13:36:30;;;;;;;7.07;1.45;;;15.20;99.90;;;;;;5075560;28;20181;-70
2022/08/31 13:39:03;;;;;;;7.72;1.60;;;15.20;99.90;;;;;;5075930;28;20276;-70
2022/08/31 13:41:37;;;;;;;8.75;1.63;;;15.30;99.90;;;;;;5075961;28;20220;-70